Flight Track Log - Related Links

Times and Time Zones

All times are in EDT time to prevent confusion due to time zone crossing. See the KLM1597 flight status page for this flight to view local times or setup timezone preferences in your user account.

Time Position Orientation Groundspeed Altitude Reporting Facility
EDT Latitude Longitude Course Direction KTS MPH feet Rate Location/Type
Sat 01:24:31 AM 52.2890 4.7380 239° Southwest 149 171 600  Level FlightAware ADS-B
Sat 01:24:41 AM 52.2850 4.7290 234° Southwest 150 173 1,000 2,400 Climbing FlightAware ADS-B
Sat 01:25:11 AM 52.2750 4.7000 241° Southwest 141 162 2,200 2,533 Climbing FlightAware ADS-B
Sat 01:25:26 AM 52.2680 4.6870 229° Southwest 149 171 2,900 2,400 Climbing FlightAware ADS-B
Sat 01:25:41 AM 52.2590 4.6790 209° Southwest 152 175 3,400 1,680 Climbing FlightAware ADS-B
Sat 01:25:51 AM 52.2500 4.6760 192° South 175 201 3,600 900 Climbing FlightAware ADS-B
Sat 01:26:21 AM 52.2250 4.7000 150° Southeast 259 298 4,000 1,900 Climbing FlightAware ADS-B
Sat 01:26:51 AM 52.2080 4.7540 117° Southeast 267 307 5,500 2,945 Climbing FlightAware ADS-B
Sat 01:27:16 AM 52.1930 4.8010 117° Southeast 278 320 6,700 3,000 Climbing FlightAware ADS-B
Sat 01:27:31 AM 52.1840 4.8290 118° Southeast 280 322 7,500 3,467 Climbing FlightAware ADS-B
Sat 01:28:01 AM 52.1660 4.8860 117° Southeast 276 318 9,300 2,743 Climbing FlightAware ADS-B
Sat 01:28:41 AM 52.1300 4.9420 136° Southeast 283 326 10,700 1,875 Climbing FlightAware ADS-B
Sat 01:29:21 AM 52.0790 4.9900 150° Southeast 322 371 11,800 1,482 Climbing FlightAware ADS-B
Sat 01:30:06 AM 52.0160 5.0480 150° Southeast 359 413 12,800 2,612 Climbing FlightAware ADS-B
Sat 01:30:46 AM 51.9590 5.1030 149° Southeast 339 390 15,500 3,529 Climbing FlightAware ADS-B
Sat 01:31:31 AM 51.8960 5.1440 158° South 330 380 17,800 2,471 Climbing FlightAware ADS-B
Sat 01:32:11 AM 51.8310 5.1720 165° South 365 420 19,000 2,250 Climbing FlightAware ADS-B
Sat 01:32:51 AM 51.7650 5.2020 164° South 365 420 20,800 2,612 Climbing FlightAware ADS-B
Sat 01:33:36 AM 51.6920 5.2380 163° South 377 434 22,700 2,329 Climbing FlightAware ADS-B
Sat 01:34:16 AM 51.6230 5.2780 160° South 379 436 24,100 1,950 Climbing FlightAware ADS-B
Sat 01:34:56 AM 51.5580 5.3160 160° South 396 456 25,300 1,765 Climbing FlightAware ADS-B
Sat 01:35:41 AM 51.4800 5.3610 160° South 398 458 26,600 1,694 Climbing FlightAware ADS-B
Sat 01:36:21 AM 51.4080 5.4020 160° South 414 476 27,700 1,553 Climbing FlightAware ADS-B
Sat 01:37:06 AM 51.3240 5.4500 160° South 423 487 28,800 1,412 Climbing FlightAware ADS-B
Sat 01:37:46 AM 51.2480 5.4930 160° South 429 494 29,700 1,425 Climbing FlightAware ADS-B
Sat 01:38:26 AM 51.1780 5.5330 160° South 431 496 30,700 1,694 Climbing FlightAware ADS-B
Sat 01:39:11 AM 51.0880 5.5840 160° South 426 490 32,100 1,765 Climbing FlightAware ADS-B
Sat 01:39:51 AM 51.0140 5.6260 160° South 424 488 33,200 1,655 Climbing FlightAware ADS-B
Sat 01:40:09 AM 50.9759 5.6474 160° South 423 487 33,700 1,271 Climbing FlightAware ADS-B
Sat 01:41:16 AM 50.8550 5.7150 161° South 426 490 35,000 1,018 Climbing FlightAware ADS-B
Sat 01:42:01 AM 50.7720 5.7610 161° South 431 496 35,600 776 Climbing FlightAware ADS-B
Sat 01:42:41 AM 50.6980 5.8020 161° South 437 503 36,100 675 Climbing FlightAware ADS-B
Sat 01:43:21 AM 50.6210 5.8450 160° South 444 511 36,500 652 Climbing FlightAware ADS-B
Sat 01:43:27 AM 50.6033 5.8544 161° South 445 512 36,600 973 Climbing FlightAware ADS-B
Sat 01:43:58 AM 50.5443 5.8875 160° South 445 512 37,100 835 Climbing FlightAware ADS-B
Sat 01:44:46 AM 50.4540 5.9370 161° South 447 514 37,700 774 Climbing FlightAware ADS-B
Sat 01:45:31 AM 50.3680 5.9840 161° South 445 512 38,300 847 Climbing FlightAware ADS-B
Sat 01:46:11 AM 50.2910 6.0250 161° South 442 509 38,900 525 Climbing FlightAware ADS-B
Sat 01:46:51 AM 50.2140 6.0670 161° South 448 516 39,000 71 Climbing FlightAware ADS-B
Sat 01:47:36 AM 50.1300 6.1130 161° South 450 518 39,000  Level FlightAware ADS-B
Sat 01:48:16 AM 50.0460 6.1580 161° South 450 518 39,000  Level FlightAware ADS-B
Sat 01:49:01 AM 49.9650 6.2020 161° South 450 518 39,000  Level FlightAware ADS-B
Sat 01:49:41 AM 49.8820 6.2460 161° South 449 517 39,000  Level FlightAware ADS-B
Sat 01:50:21 AM 49.7990 6.2900 161° South 449 517 39,000  Level FlightAware ADS-B
Sat 01:51:11 AM 49.7090 6.3390 161° South 439 505 39,000  Level FlightAware ADS-B
Sat 01:52:01 AM 49.6020 6.3950 161° South 445 512 39,000  Level FlightAware ADS-B
Sat 01:52:41 AM 49.5260 6.4350 161° South 445 512 39,000  Level FlightAware ADS-B
Sat 01:53:16 AM 49.4600 6.4700 161° South 444 511 39,000  Level FlightAware ADS-B
Sat 01:54:01 AM 49.3690 6.5170 161° South 444 511 39,000  Level FlightAware ADS-B
Sat 01:54:46 AM 49.2910 6.5650 158° South 450 518 39,000  Level FlightAware ADS-B
Sat 01:55:31 AM 49.1990 6.6350 154° Southeast 451 519 39,000  Level FlightAware ADS-B
Sat 01:56:16 AM 49.1150 6.6970 154° Southeast 451 519 39,000  Level FlightAware ADS-B
Sat 01:56:50 AM 49.0467 6.7491 153° Southeast 451 519 39,000  Level FlightAware ADS-B
Sat 01:57:22 AM 48.9877 6.7939 154° Southeast 452 520 39,000  Level FlightAware ADS-B
Sat 01:57:58 AM 48.9208 6.8430 154° Southeast 452 520 39,000  Level FlightAware ADS-B
Sat 01:59:01 AM 48.8160 6.9220 154° Southeast 452 520 39,000  Level FlightAware ADS-B
Sat 01:59:46 AM 48.7310 6.9860 154° Southeast 453 521 39,000  Level FlightAware ADS-B
Sat 02:00:21 AM 48.6670 7.0310 155° Southeast 453 521 39,000  Level FlightAware ADS-B
Sat 02:01:06 AM 48.5740 7.1000 154° Southeast 454 522 39,000  Level FlightAware ADS-B
Sat 02:01:41 AM 48.5130 7.1450 154° Southeast 456 525 39,000 494 Level FlightAware ADS-B
Sat 02:02:31 AM 48.4100 7.2210 154° Southeast 446 513 39,700 568 Climbing FlightAware ADS-B
Sat 02:03:16 AM 48.3280 7.2800 154° Southeast 450 518 39,900 212 Climbing FlightAware ADS-B
Sat 02:03:56 AM 48.2490 7.3370 154° Southeast 449 517 40,000 75 Climbing FlightAware ADS-B
Sat 02:04:36 AM 48.1870 7.3820 154° Southeast 449 517 40,000  Level FlightAware ADS-B
Sat 02:05:21 AM 48.1000 7.4450 154° Southeast 449 517 40,000  Level FlightAware ADS-B
Sat 02:06:01 AM 48.0230 7.5000 154° Southeast 457 526 40,000  Level FlightAware ADS-B
Sat 02:06:46 AM 47.9380 7.5610 154° Southeast 449 517 40,000  Level FlightAware ADS-B
Sat 02:07:26 AM 47.8600 7.6140 155° Southeast 454 522 40,000  Level FlightAware ADS-B
Sat 02:08:06 AM 47.7820 7.6620 158° South 453 521 40,000  Level FlightAware ADS-B
Sat 02:08:51 AM 47.6980 7.7130 158° South 454 522 40,000  Level FlightAware ADS-B
Sat 02:09:31 AM 47.6150 7.7640 157° South 454 522 40,000  Level FlightAware ADS-B
Sat 02:10:16 AM 47.5260 7.8190 157° South 457 526 40,000  Level FlightAware ADS-B
Sat 02:10:51 AM 47.4570 7.8610 158° South 452 520 40,000  Level FlightAware ADS-B
Sat 02:11:36 AM 47.3750 7.9100 158° South 453 521 40,000  Level FlightAware ADS-B
Sat 02:12:21 AM 47.2860 7.9650 157° South 462 532 40,000  Level FlightAware ADS-B
Sat 02:13:01 AM 47.2030 8.0150 158° South 453 521 40,000  Level FlightAware ADS-B
Sat 02:13:41 AM 47.1270 8.0740 152° Southeast 459 528 40,000  Level FlightAware ADS-B
Sat 02:14:26 AM 47.0470 8.1380 151° Southeast 466 536 40,000  Level FlightAware ADS-B
Sat 02:15:06 AM 46.9660 8.2050 151° Southeast 460 529 40,000  Level FlightAware ADS-B
Sat 02:15:51 AM 46.8800 8.2750 151° Southeast 466 536 40,000  Level FlightAware ADS-B
Sat 02:16:26 AM 46.8060 8.3350 151° Southeast 459 528 40,000  Level FlightAware ADS-B
Sat 02:18:11 AM 46.6110 8.4920 151° Southeast 463 533 40,000  Level FlightAware ADS-B
Sat 02:18:51 AM 46.5390 8.5490 151° Southeast 463 533 40,000  Level FlightAware ADS-B
Sat 02:19:36 AM 46.4510 8.6190 151° Southeast 462 532 40,000  Level FlightAware ADS-B
Sat 02:20:16 AM 46.3750 8.6800 151° Southeast 462 532 40,000  Level FlightAware ADS-B
Sat 02:20:51 AM 46.3150 8.7260 152° Southeast 457 526 40,000  Level FlightAware ADS-B
Sat 02:21:36 AM 46.2300 8.7930 151° Southeast 457 526 40,000  Level FlightAware ADS-B
Sat 02:22:21 AM 46.1450 8.8590 152° Southeast 457 526 40,000  Level FlightAware ADS-B
Sat 02:23:06 AM 46.0610 8.9250 151° Southeast 456 525 40,000  Level FlightAware ADS-B
Sat 02:25:00 AM 45.8919 9.0682 149° Southeast  Level Estimated
Sat 02:26:00 AM 45.8029 9.1432 150° Southeast  Level Estimated
Sat 02:27:00 AM 45.7138 9.2180 150° Southeast  Level Estimated
Sat 02:28:00 AM 45.6246 9.2925 150° Southeast  Level Estimated
Sat 02:29:00 AM 45.5354 9.3668 150° Southeast  Level Estimated
Sat 02:30:00 AM 45.4462 9.4409 150° Southeast  Level Estimated
Sat 02:31:00 AM 45.3569 9.5147 150° Southeast  Level Estimated
Sat 02:31:26 AM 45.1190 9.6480 150° Southeast 458 527 40,000  Level FlightAware ADS-B
Sat 02:32:51 AM 44.9480 9.7750 152° Southeast 460 529 40,000  Level FlightAware ADS-B
Sat 02:33:26 AM 44.8810 9.8250 152° Southeast 470 541 40,000  Level FlightAware ADS-B
Sat 02:35:11 AM 44.6770 9.9660 154° Southeast 469 540 40,000  Level FlightAware ADS-B
Sat 02:35:56 AM 44.5860 10.0160 159° South 470 541 40,000  Level FlightAware ADS-B
Sat 02:36:36 AM 44.5060 10.0610 158° South 468 539 40,000  Level FlightAware ADS-B
Sat 02:37:16 AM 44.4250 10.1060 158° South 469 540 40,000  Level FlightAware ADS-B
Sat 02:38:01 AM 44.3350 10.1560 158° South 470 541 40,000  Level FlightAware ADS-B
Sat 02:38:41 AM 44.2540 10.2020 158° South 470 541 40,000  Level FlightAware ADS-B
Sat 02:39:21 AM 44.1730 10.2450 159° South 469 540 40,000  Level FlightAware ADS-B
Sat 02:40:06 AM 44.0820 10.2950 158° South 470 541 40,000  Level FlightAware ADS-B
Sat 02:40:46 AM 44.0010 10.3390 159° South 469 540 40,000  Level FlightAware ADS-B
Sat 02:41:31 AM 43.9100 10.3890 158° South 464 534 40,000  Level FlightAware ADS-B
Sat 02:42:11 AM 43.8320 10.4320 158° South 464 534 40,000  Level FlightAware ADS-B
Sat 02:42:56 AM 43.7390 10.4820 159° South 470 541 40,000  Level FlightAware ADS-B
Sat 02:43:36 AM 43.6570 10.5260 159° South 470 541 40,000 -225 Level FlightAware ADS-B
Sat 02:44:16 AM 43.5760 10.5700 159° South 463 533 39,700 -1,200 Descending FlightAware ADS-B
Sat 02:45:01 AM 43.4890 10.6160 159° South 454 522 38,300 -2,118 Descending FlightAware ADS-B
Sat 02:45:41 AM 43.4080 10.6600 158° South 452 520 36,700 -2,175 Descending FlightAware ADS-B
Sat 02:46:21 AM 43.3400 10.6970 158° South 455 524 35,400 -2,824 Descending FlightAware ADS-B
Sat 02:47:06 AM 43.2410 10.7500 159° South 466 536 32,700 -3,671 Descending FlightAware ADS-B
Sat 02:47:46 AM 43.1620 10.7910 159° South 468 539 30,200 -2,682 Descending FlightAware ADS-B
Sat 02:48:31 AM 43.0720 10.8390 159° South 452 520 28,900 -1,906 Descending FlightAware ADS-B
Sat 02:49:11 AM 42.9950 10.8800 159° South 428 493 27,500 -2,047 Descending FlightAware ADS-B
Sat 02:49:56 AM 42.9120 10.9240 159° South 414 476 26,000 -2,188 Descending FlightAware ADS-B
Sat 02:50:36 AM 42.8350 10.9640 159° South 415 478 24,400 -2,400 Descending FlightAware ADS-B
Sat 02:51:06 AM 42.7870 11.0080 146° Southeast 429 494 23,200 -2,143 Descending FlightAware ADS-B
Sat 02:51:46 AM 42.7440 11.0950 124° Southeast 425 489 21,900 -1,906 Descending FlightAware ADS-B
Sat 02:52:31 AM 42.6960 11.1970 123° Southeast 404 465 20,500 -1,835 Descending FlightAware ADS-B
Sat 02:53:11 AM 42.6560 11.2810 123° Southeast 393 452 19,300 -1,958 Descending FlightAware ADS-B
Sat 02:54:06 AM 42.6020 11.3920 123° Southeast 386 444 17,400 -2,021 Descending FlightAware ADS-B
Sat 02:54:46 AM 42.5610 11.4760 124° Southeast 376 433 16,100 -2,000 Descending FlightAware ADS-B
Sat 02:55:21 AM 42.5280 11.5450 123° Southeast 367 422 14,900 -1,906 Descending FlightAware ADS-B
Sat 02:56:11 AM 42.4850 11.6330 124° Southeast 359 413 13,400 -1,453 Descending FlightAware ADS-B
Sat 02:56:56 AM 42.4450 11.7160 123° Southeast 333 383 12,600 -988 Descending FlightAware ADS-B
Sat 02:57:36 AM 42.4120 11.7840 123° Southeast 311 358 12,000 -1,050 Descending FlightAware ADS-B
Sat 02:58:16 AM 42.3810 11.8470 124° Southeast 304 350 11,200 -1,440 Descending FlightAware ADS-B
Sat 02:58:51 AM 42.3540 11.9050 122° Southeast 303 349 10,200 -1,600 Descending FlightAware ADS-B
Sat 02:59:16 AM 42.3340 11.9440 125° Southeast 296 341 9,600 -1,320 Descending FlightAware ADS-B
Sat 02:59:41 AM 42.3150 11.9830 123° Southeast 297 342 9,100 -787 Descending FlightAware ADS-B
Sat 03:00:17 AM 42.2880 12.0390 123° Southeast 292 336 8,800 -1,364 Descending FlightAware ADS-B
Sat 03:00:47 AM 42.2610 12.0830 130° Southeast 272 313 7,600 -1,938 Descending FlightAware ADS-B
Sat 03:01:22 AM 42.2190 12.1040 160° South 267 307 6,700 -1,500 Descending FlightAware ADS-B
Sat 03:01:47 AM 42.1890 12.1170 162° South 274 315 6,100 -1,440 Descending FlightAware ADS-B
Sat 03:02:12 AM 42.1580 12.1300 163° South 271 312 5,500 -720 Descending FlightAware ADS-B
Sat 03:03:27 AM 42.0760 12.1650 162° South 222 255 4,900 -686 Descending FlightAware ADS-B
Sat 03:03:57 AM 42.0470 12.1770 163° South 216 249 4,300 -1,091 Descending FlightAware ADS-B
Sat 03:04:22 AM 42.0220 12.1870 163° South 203 234 3,900 -982 Descending FlightAware ADS-B
Sat 03:04:52 AM 41.9970 12.1980 162° South 185 213 3,400 -1,200 Descending FlightAware ADS-B
Sat 03:05:07 AM 41.9840 12.2040 161° South 189 217 3,000 -1,200 Descending FlightAware ADS-B
Sat 03:05:32 AM 41.9630 12.2120 164° South 172 198 2,600 -1,050 Descending FlightAware ADS-B
Sat 03:05:47 AM 41.9530 12.2170 160° South 156 180 2,300 -1,067 Descending FlightAware ADS-B
Sat 03:06:17 AM 41.9310 12.2260 163° South 153 176 1,800 -873 Descending FlightAware ADS-B
Sat 03:06:42 AM 41.9150 12.2330 162° South 137 158 1,500 -764 Descending FlightAware ADS-B
Sat 03:07:12 AM 41.8960 12.2400 165° South 134 154 1,100 -800 Descending FlightAware ADS-B
Sat 03:07:27 AM 41.8880 12.2440 160° South 136 157 900 -750 Descending FlightAware ADS-B
Sat 03:07:52 AM 41.8730 12.2500 163° South 136 157 600 -360 Descending FlightAware ADS-B
Sat 03:08:17 AM 41.8590 12.2560 162° South 136 157 600  Level FlightAware ADS-B
Sat 03:10:00 AM 41.8045 12.2508 184° South  Level Estimated
Sat 03:11:00 AM 41.8045 12.2508 336° Northwest  Level Estimated
Sat 03:12:00 AM 41.8045 12.2508 336° Northwest  Level Estimated
Sat 03:13:00 AM 41.8045 12.2508 336° Northwest  Level Estimated
Sat 03:14:00 AM 41.8045 12.2508 336° Northwest  Level Estimated
Sat 03:15:00 AM 41.8045 12.2508 336° Northwest  Level Estimated
Sat 03:16:00 AM 41.8045 12.2508 336° Northwest  Level Estimated
Sat 03:17:00 AM 41.8045 12.2508 336° Northwest  Level Estimated
Sat 03:18:00 AM 41.8045 12.2508 336° Northwest  Level Estimated
Sat 03:19:00 AM 41.8045 12.2508 336° Northwest  Level Estimated
Sat 03:20:00 AM 41.8045 12.2508 336° Northwest  Level Estimated

Login

Don't have an account? Register now (free) for customized features, flight alerts, and more!